createdAt,value
2017-07-18T00:00:02.724Z,1022.01
2017-07-18T00:05:02.996Z,1022.04
2017-07-18T00:10:03.650Z,1022
2017-07-18T00:15:03.037Z,1022
2017-07-18T00:20:02.707Z,1022.05
2017-07-18T00:25:03.234Z,1022.06
2017-07-18T00:30:02.879Z,1022.07
2017-07-18T00:35:03.443Z,1022.11
2017-07-18T00:40:02.780Z,1022.06
2017-07-18T00:45:03.370Z,1022.04
2017-07-18T00:50:02.755Z,1022.04
2017-07-18T00:55:03.496Z,1022.06
2017-07-18T01:00:02.770Z,1022.08
2017-07-18T01:05:03.205Z,1021.95
2017-07-18T01:10:02.924Z,1021.98
2017-07-18T01:15:03.529Z,1021.93
2017-07-18T01:20:02.934Z,1021.91
2017-07-18T01:25:03.706Z,1021.91
2017-07-18T01:30:03.334Z,1021.85
2017-07-18T01:35:02.564Z,1021.78
2017-07-18T01:40:03.202Z,1021.77
2017-07-18T01:45:03.585Z,1021.71
2017-07-18T01:50:03.218Z,1021.68
2017-07-18T01:55:02.599Z,1021.67
2017-07-18T02:00:03.248Z,1021.64
2017-07-18T02:05:02.827Z,1021.7
2017-07-18T02:10:03.388Z,1021.66
2017-07-18T02:15:02.705Z,1021.63
2017-07-18T02:20:03.067Z,1021.58
2017-07-18T02:25:03.655Z,1021.52
2017-07-18T02:30:03.021Z,1021.44
2017-07-18T02:35:02.763Z,1021.39
2017-07-18T02:40:03.310Z,1021.42
2017-07-18T02:45:02.896Z,1021.42
2017-07-18T02:50:03.493Z,1021.46
2017-07-18T02:55:02.858Z,1021.39
2017-07-18T03:00:03.333Z,1021.37
2017-07-18T03:05:02.882Z,1021.38
2017-07-18T03:10:03.548Z,1021.4
2017-07-18T03:15:03.039Z,1021.39
2017-07-18T03:20:03.636Z,1021.35
2017-07-18T03:25:02.890Z,1021.33
2017-07-18T03:30:03.337Z,1021.34
2017-07-18T03:35:02.937Z,1021.39
2017-07-18T03:40:03.439Z,1021.39
2017-07-18T03:45:02.850Z,1021.45
2017-07-18T03:50:03.237Z,1021.27
2017-07-18T03:55:02.729Z,1021.29
2017-07-18T04:00:03.046Z,1021.36
2017-07-18T04:05:03.487Z,1021.42
2017-07-18T04:10:02.869Z,1021.46
2017-07-18T04:15:03.319Z,1021.46
2017-07-18T04:20:02.652Z,1021.51
2017-07-18T04:25:03.180Z,1021.41
2017-07-18T04:30:02.696Z,1021.34
2017-07-18T04:35:03.217Z,1021.36
2017-07-18T04:40:02.697Z,1021.38
2017-07-18T04:45:03.164Z,1021.33
2017-07-18T04:50:02.668Z,1021.39
2017-07-18T04:55:03.235Z,1021.38
2017-07-18T05:00:02.610Z,1021.33
2017-07-18T05:05:02.996Z,1021.34
2017-07-18T05:10:03.513Z,1021.35
2017-07-18T05:15:02.802Z,1021.28
2017-07-18T05:20:03.388Z,1021.27
2017-07-18T05:25:02.951Z,1021.23
2017-07-18T05:30:03.199Z,1021.24
2017-07-18T05:35:03.531Z,1021.25
2017-07-18T05:40:03.053Z,1021.21
2017-07-18T05:45:02.686Z,1021.2
2017-07-18T05:50:03.047Z,1021.18
2017-07-18T05:55:03.424Z,1021.15
2017-07-18T06:00:02.776Z,1021.23
2017-07-18T06:05:03.155Z,1021.24
2017-07-18T06:10:03.527Z,1021.27
2017-07-18T06:15:03.013Z,1021.23
2017-07-18T06:20:03.299Z,1021.18
2017-07-18T06:25:02.620Z,1021.23
2017-07-18T06:30:02.883Z,1021.17
2017-07-18T06:35:03.464Z,1021.24
2017-07-18T06:40:02.990Z,1021.26
2017-07-18T06:45:03.487Z,1021.2
2017-07-18T06:50:02.927Z,1021.22
2017-07-18T06:55:03.261Z,1021.1
2017-07-18T07:00:02.624Z,1021.1
2017-07-18T07:05:03.073Z,1021.11
2017-07-18T07:10:03.548Z,1021.16
2017-07-18T07:15:02.961Z,1021.12
2017-07-18T07:20:03.424Z,1020.97
2017-07-18T07:25:02.927Z,1021.04
2017-07-18T07:30:03.350Z,1021
2017-07-18T07:35:02.802Z,1021
2017-07-18T07:40:03.243Z,1020.99
2017-07-18T07:45:02.560Z,1020.97
2017-07-18T07:50:03.025Z,1020.97
2017-07-18T07:55:03.288Z,1020.94
2017-07-18T08:00:02.705Z,1020.86
2017-07-18T08:05:03.042Z,1020.85
2017-07-18T08:10:02.526Z,1020.84
2017-07-18T08:15:02.973Z,1020.76
2017-07-18T08:20:02.537Z,1020.79
2017-07-18T08:25:03.013Z,1020.65
2017-07-18T08:30:03.371Z,1020.66
2017-07-18T08:35:02.976Z,1020.62
2017-07-18T08:40:03.303Z,1020.57
2017-07-18T08:45:02.743Z,1020.6
2017-07-18T08:50:03.050Z,1020.53
2017-07-18T08:55:03.436Z,1020.47
2017-07-18T09:00:02.761Z,1020.46
2017-07-18T09:05:03.217Z,1020.47
2017-07-18T09:10:02.584Z,1020.47
2017-07-18T09:15:03.101Z,1020.41
2017-07-18T09:20:03.505Z,1020.35
2017-07-18T09:25:02.955Z,1020.33
2017-07-18T09:30:03.381Z,1020.32
2017-07-18T09:35:02.798Z,1020.29
2017-07-18T09:40:03.328Z,1020.25
2017-07-18T09:45:02.653Z,1020.21
2017-07-18T09:50:03.126Z,1020.14
2017-07-18T09:55:02.606Z,1020.18
2017-07-18T10:00:02.872Z,1020.06
2017-07-18T10:05:03.240Z,1020.01
2017-07-18T10:10:02.612Z,1019.99
2017-07-18T10:15:03.045Z,1019.87
2017-07-18T10:20:03.392Z,1019.88
2017-07-18T10:25:02.952Z,1019.81
2017-07-18T10:30:03.412Z,1019.72
2017-07-18T10:35:02.826Z,1019.75
2017-07-18T10:40:03.187Z,1019.75
2017-07-18T10:45:03.512Z,1019.69
2017-07-18T10:50:02.933Z,1019.63
2017-07-18T10:55:03.291Z,1019.51
2017-07-18T11:00:02.742Z,1019.48
2017-07-18T11:05:03.331Z,1019.42
2017-07-18T11:10:02.803Z,1019.29
2017-07-18T11:15:03.235Z,1019.24
2017-07-18T11:20:02.623Z,1019.12
2017-07-18T11:25:02.952Z,1019.15
2017-07-18T11:30:03.226Z,1019.05
2017-07-18T11:35:02.559Z,1018.98
2017-07-18T11:40:03.065Z,1019.01
2017-07-18T11:45:02.568Z,1018.88
2017-07-18T11:50:02.893Z,1018.84
2017-07-18T11:55:03.385Z,1018.74
2017-07-18T12:00:02.877Z,1018.73
2017-07-18T12:05:03.192Z,1018.67
2017-07-18T12:10:02.560Z,1018.57
2017-07-18T12:15:02.906Z,1018.6
2017-07-18T12:20:03.266Z,1018.52
2017-07-18T12:25:02.714Z,1018.44
2017-07-18T12:30:03.020Z,1018.43
2017-07-18T12:35:03.619Z,1018.4
2017-07-18T12:40:02.973Z,1018.33
2017-07-18T12:45:03.364Z,1018.28
2017-07-18T12:50:02.763Z,1018.24
2017-07-18T12:55:03.245Z,1018.14
2017-07-18T13:00:02.688Z,1018.18
2017-07-18T13:05:03.131Z,1018.13
2017-07-18T13:10:02.638Z,1018.07
2017-07-18T13:15:03.080Z,1018.03
2017-07-18T13:20:02.646Z,1017.91
2017-07-18T13:25:02.961Z,1017.77
2017-07-18T13:30:03.456Z,1017.72
2017-07-18T13:35:02.902Z,1017.62
2017-07-18T13:40:03.427Z,1017.63
2017-07-18T13:45:02.765Z,1017.56
2017-07-18T13:50:03.274Z,1017.47
2017-07-18T13:55:02.670Z,1017.44
2017-07-18T14:00:03.054Z,1017.4
2017-07-18T14:05:03.315Z,1017.33
2017-07-18T14:10:02.747Z,1017.3
2017-07-18T14:15:03.214Z,1017.27
2017-07-18T14:20:02.732Z,1017.18
2017-07-18T14:25:03.196Z,1017.08
2017-07-18T14:30:03.470Z,1017.09
2017-07-18T14:35:02.783Z,1017
2017-07-18T14:40:03.166Z,1016.97
2017-07-18T14:45:02.649Z,1016.84
2017-07-18T14:50:03.132Z,1016.85
2017-07-18T14:55:03.440Z,1016.77
2017-07-18T15:00:02.778Z,1016.74
2017-07-18T15:05:03.147Z,1016.58
2017-07-18T15:10:03.005Z,1016.51
2017-07-18T15:15:03.468Z,1016.53
2017-07-18T15:20:02.801Z,1016.41
2017-07-18T15:25:03.217Z,1016.38
2017-07-18T15:30:02.539Z,1016.37
2017-07-18T15:35:02.904Z,1016.27
2017-07-18T15:40:03.379Z,1016.17
2017-07-18T15:45:02.839Z,1016.18
2017-07-18T15:50:03.198Z,1016.19
2017-07-18T15:55:02.642Z,1016.05
2017-07-18T16:00:03.016Z,1016.01
2017-07-18T16:05:02.517Z,1016
2017-07-18T16:10:02.858Z,1015.88
2017-07-18T16:15:03.352Z,1016.01
2017-07-18T16:20:02.770Z,1015.91
2017-07-18T16:25:03.098Z,1015.92
2017-07-18T16:30:03.436Z,1015.92
2017-07-18T16:35:02.773Z,1015.82
2017-07-18T16:40:03.124Z,1015.78
2017-07-18T16:45:03.414Z,1015.82
2017-07-18T16:50:02.704Z,1015.74
2017-07-18T16:55:03.112Z,1015.71
2017-07-18T17:00:02.646Z,1015.72
2017-07-18T17:05:03.020Z,1015.7
2017-07-18T17:10:03.530Z,1015.63
2017-07-18T17:15:02.822Z,1015.67
2017-07-18T17:20:03.165Z,1015.61
2017-07-18T17:25:03.459Z,1015.66
2017-07-18T17:30:02.957Z,1015.59
2017-07-18T17:35:03.280Z,1015.63
2017-07-18T17:40:02.680Z,1015.64
2017-07-18T17:45:03.013Z,1015.54
2017-07-18T17:50:03.350Z,1015.59
2017-07-18T17:55:02.776Z,1015.61
2017-07-18T18:00:03.234Z,1015.58
2017-07-18T18:05:02.547Z,1015.61
2017-07-18T18:10:03.019Z,1015.59
2017-07-18T18:15:03.293Z,1015.62
2017-07-18T18:20:02.635Z,1015.52
2017-07-18T18:25:02.895Z,1015.46
2017-07-18T18:30:03.189Z,1015.37
2017-07-18T18:35:02.717Z,1015.36
2017-07-18T18:40:03.012Z,1015.38
2017-07-18T18:45:03.393Z,1015.44
2017-07-18T18:50:02.933Z,1015.42
2017-07-18T18:55:03.216Z,1015.4
2017-07-18T19:00:03.525Z,1015.41
2017-07-18T19:05:02.806Z,1015.34
2017-07-18T19:10:03.193Z,1015.24
2017-07-18T19:15:02.661Z,1015.26
2017-07-18T19:20:02.974Z,1015.19
2017-07-18T19:25:03.261Z,1015.18
2017-07-18T19:30:02.614Z,1015.08
2017-07-18T19:35:03.092Z,1014.97
2017-07-18T19:40:03.469Z,1015.02
2017-07-18T19:45:02.865Z,1014.95
2017-07-18T19:50:03.366Z,1014.99
2017-07-18T19:55:02.641Z,1015.01
2017-07-18T20:00:02.963Z,1014.94
2017-07-18T20:05:03.520Z,1015.02
2017-07-18T20:10:03.030Z,1015.02
2017-07-18T20:15:03.344Z,1014.96
2017-07-18T20:20:02.641Z,1014.94
2017-07-18T20:25:02.974Z,1014.86
2017-07-18T20:30:03.511Z,1014.85
2017-07-18T20:35:02.987Z,1014.92
2017-07-18T20:40:03.455Z,1014.93
2017-07-18T20:45:02.970Z,1014.91
2017-07-18T20:50:03.265Z,1014.87
2017-07-18T20:55:02.635Z,1014.8
2017-07-18T21:00:02.952Z,1014.83
2017-07-18T21:05:03.383Z,1014.87
2017-07-18T21:10:02.826Z,1014.88
2017-07-18T21:15:03.327Z,1014.74
2017-07-18T21:20:02.768Z,1014.6
2017-07-18T21:25:03.325Z,1014.57
2017-07-18T21:30:02.634Z,1014.5
2017-07-18T21:35:02.956Z,1014.47
2017-07-18T21:40:03.467Z,1014.43
2017-07-18T21:45:02.802Z,1014.41
2017-07-18T21:50:03.259Z,1014.45
2017-07-18T21:55:02.797Z,1014.43
2017-07-18T22:00:03.217Z,1014.43
2017-07-18T22:05:02.726Z,1014.38
2017-07-18T22:10:03.247Z,1014.37
2017-07-18T22:15:02.653Z,1014.26
2017-07-18T22:20:03.378Z,1014.16
2017-07-18T22:25:02.753Z,1014.21
2017-07-18T22:30:03.112Z,1014.1
2017-07-18T22:35:02.558Z,1014.05
2017-07-18T22:40:03.046Z,1014.08
2017-07-18T22:45:03.308Z,1014.09
2017-07-18T22:50:02.781Z,1014.04
2017-07-18T22:55:03.123Z,1013.93
2017-07-18T23:00:03.682Z,1013.87
2017-07-18T23:05:03.489Z,1013.86
2017-07-18T23:10:02.899Z,1013.84
2017-07-18T23:15:03.193Z,1013.87
2017-07-18T23:20:02.699Z,1013.88
2017-07-18T23:25:03.172Z,1013.83
2017-07-18T23:30:02.610Z,1013.75
2017-07-18T23:35:02.973Z,1013.71
2017-07-18T23:40:03.416Z,1013.62
2017-07-18T23:45:02.737Z,1013.61
2017-07-18T23:50:03.427Z,1013.58
2017-07-18T23:55:02.884Z,1013.55
